Time;durP1;ratioP1;P1;durP2;ratioP2;P2;SDS_P1;SDS_P2;PMS_P1;PMS_P2;Temp;Humidity;BMP_temperature;BMP_pressure;BME280_temperature;BME280_humidity;BME280_pressure;Samples;Min_cycle;Max_cycle;Signal;HPM_P1;HPM_P2
2022/09/21 00:00:25;;;;;;;0.20;0.20;;;9.80;99.90;;;;;;4858314;29;20077;-80
2022/09/21 00:02:54;;;;;;;0.20;0.20;;;9.70;99.90;;;;;;4872298;29;20089;-80
2022/09/21 00:05:20;;;;;;;0.10;0.10;;;9.70;99.90;;;;;;4875107;29;20444;-80
2022/09/21 00:07:46;;;;;;;0.20;0.20;;;9.70;99.90;;;;;;4859373;29;20060;-80
2022/09/21 00:10:11;;;;;;;0.17;0.17;;;9.70;99.90;;;;;;4874904;29;20045;-80
2022/09/21 00:12:40;;;;;;;0.10;0.10;;;9.70;99.90;;;;;;4873706;29;20049;-80
2022/09/21 00:15:09;;;;;;;0.20;0.20;;;9.70;99.90;;;;;;4857966;29;20454;-79
2022/09/21 00:17:36;;;;;;;0.20;0.20;;;9.60;99.90;;;;;;4857477;29;20072;-80
2022/09/21 00:20:05;;;;;;;0.20;0.20;;;9.60;99.90;;;;;;4875291;29;20045;-80
2022/09/21 00:22:32;;;;;;;0.20;0.20;;;9.60;99.90;;;;;;4858169;29;20037;-80
2022/09/21 00:25:00;;;;;;;0.10;0.10;;;9.60;99.90;;;;;;4857876;29;20425;-81
2022/09/21 00:27:28;;;;;;;0.28;0.28;;;9.60;99.90;;;;;;4857324;29;20155;-80
2022/09/21 00:30:05;;;;;;;0.20;0.20;;;9.60;99.90;;;;;;4875364;29;20108;-80
2022/09/21 00:32:32;;;;;;;0.20;0.20;;;9.60;99.90;;;;;;4856122;29;20045;-80
2022/09/21 00:34:59;;;;;;;0.15;0.15;;;9.50;99.90;;;;;;4873749;29;20494;-80
2022/09/21 00:37:26;;;;;;;0.20;0.20;;;9.50;99.90;;;;;;4859629;29;20311;-80
2022/09/21 00:39:52;;;;;;;0.20;0.20;;;9.50;99.90;;;;;;4858102;29;20049;-80
2022/09/21 00:42:20;;;;;;;0.20;0.20;;;9.50;99.90;;;;;;4874615;29;20071;-80
2022/09/21 00:44:46;;;;;;;0.20;0.20;;;9.50;99.90;;;;;;4858939;29;20049;-80
2022/09/21 00:47:22;;;;;;;0.20;0.20;;;9.50;99.90;;;;;;4873436;29;20040;-79
2022/09/21 00:49:53;;;;;;;0.20;0.20;;;9.50;99.90;;;;;;4873157;29;20049;-79
2022/09/21 00:52:21;;;;;;;0.20;0.20;;;9.50;99.90;;;;;;4858121;29;20052;-80
2022/09/21 00:54:54;;;;;;;0.17;0.17;;;9.50;99.90;;;;;;4874861;29;20124;-80
2022/09/21 00:57:24;;;;;;;0.10;0.10;;;9.40;99.90;;;;;;4871574;29;20048;-80
2022/09/21 00:59:54;;;;;;;0.20;0.20;;;9.40;99.90;;;;;;4872553;29;20068;-80
2022/09/21 01:02:21;;;;;;;0.20;0.20;;;9.40;99.90;;;;;;4854919;29;20045;-80
2022/09/21 01:04:47;;;;;;;0.20;0.20;;;9.40;99.90;;;;;;4857909;29;20561;-80
2022/09/21 01:07:19;;;;;;;0.20;0.20;;;9.40;99.90;;;;;;4873713;29;20049;-80
2022/09/21 01:09:50;;;;;;;0.20;0.20;;;9.40;99.90;;;;;;4857304;29;20060;-80
2022/09/21 01:12:32;;;;;;;0.20;0.20;;;9.40;99.90;;;;;;4874096;29;20048;-81
2022/09/21 01:15:04;;;;;;;;;;;9.40;99.90;;;;;;4856307;29;20139;-79
2022/09/21 01:17:49;;;;;;;0.20;0.20;;;9.30;99.90;;;;;;4869063;29;19930;-81
2022/09/21 01:20:58;;;;;;;0.20;0.20;;;9.30;99.90;;;;;;4852714;29;20079;-80
2022/09/21 01:23:40;;;;;;;0.20;0.20;;;9.30;99.90;;;;;;4851845;29;20128;-79
2022/09/21 01:26:15;;;;;;;0.20;0.20;;;9.30;99.90;;;;;;4873963;29;20156;-81
2022/09/21 01:29:14;;;;;;;0.20;0.20;;;9.30;99.90;;;;;;4856757;29;20072;-80
2022/09/21 01:31:52;;;;;;;0.20;0.20;;;9.20;99.90;;;;;;4868553;29;20052;-80
2022/09/21 01:34:35;;;;;;;0.20;0.20;;;9.20;99.90;;;;;;4873074;29;20048;-79
2022/09/21 01:37:09;;;;;;;0.20;0.20;;;9.20;99.90;;;;;;4869659;29;20501;-80
2022/09/21 01:39:37;;;;;;;0.20;0.20;;;9.20;99.90;;;;;;4874708;29;20037;-80
2022/09/21 01:42:05;;;;;;;0.20;0.20;;;9.20;99.90;;;;;;4873952;29;20051;-80
2022/09/21 01:44:33;;;;;;;0.20;0.20;;;9.20;99.90;;;;;;4855236;29;20058;-80
2022/09/21 01:47:04;;;;;;;0.10;0.10;;;9.10;99.90;;;;;;4867547;29;20053;-80
2022/09/21 01:49:36;;;;;;;0.15;0.15;;;9.10;99.90;;;;;;4868232;29;20063;-80
2022/09/21 01:52:10;;;;;;;0.20;0.20;;;9.10;99.90;;;;;;4868599;29;20497;-81
2022/09/21 01:54:46;;;;;;;0.10;0.10;;;9.10;99.90;;;;;;4855968;29;20132;-81
2022/09/21 01:57:35;;;;;;;0.20;0.20;;;9.10;99.90;;;;;;4856621;29;20110;-80
2022/09/21 02:00:02;;;;;;;0.20;0.20;;;9.10;99.90;;;;;;4868044;29;20124;-81
2022/09/21 02:02:57;;;;;;;0.20;0.20;;;9.10;99.90;;;;;;4872943;29;20327;-81
2022/09/21 02:05:26;;;;;;;0.20;0.20;;;9.10;99.90;;;;;;4855873;29;20112;-80
2022/09/21 02:07:52;;;;;;;0.20;0.20;;;9.10;99.90;;;;;;4857243;29;20041;-81
2022/09/21 02:10:44;;;;;;;0.10;0.10;;;9.20;99.90;;;;;;4857562;29;20080;-81
2022/09/21 02:13:10;;;;;;;0.10;0.10;;;9.10;99.90;;;;;;4870391;29;20061;-80
2022/09/21 02:15:54;;;;;;;0.20;0.20;;;9.10;99.90;;;;;;4855496;29;20041;-81
2022/09/21 02:18:43;;;;;;;0.10;0.10;;;9.20;99.90;;;;;;4867501;29;20049;-81
2022/09/21 02:21:24;;;;;;;0.20;0.20;;;9.20;99.90;;;;;;4869626;29;20045;-80
2022/09/21 02:24:02;;;;;;;0.20;0.20;;;9.20;99.90;;;;;;4855269;29;20100;-81
2022/09/21 02:26:43;;;;;;;0.20;0.20;;;9.10;99.90;;;;;;4850115;29;20061;-80
2022/09/21 02:29:25;;;;;;;0.20;0.20;;;9.10;99.90;;;;;;4859844;29;20045;-80
2022/09/21 02:31:58;;;;;;;0.20;0.20;;;9.10;99.90;;;;;;4860269;29;20553;-81
2022/09/21 02:34:54;;;;;;;0.20;0.20;;;9.10;99.90;;;;;;4861416;29;20053;-80
2022/09/21 02:37:41;;;;;;;0.20;0.20;;;9.10;99.90;;;;;;4858454;29;20048;-80
2022/09/21 02:40:29;;;;;;;0.20;0.20;;;9.10;99.90;;;;;;4874803;29;20055;-81
2022/09/21 02:43:04;;;;;;;0.10;0.10;;;9.10;99.90;;;;;;4866048;29;20525;-81
2022/09/21 02:45:36;;;;;;;0.13;0.13;;;9.20;99.90;;;;;;4876091;29;20045;-80
2022/09/21 02:48:07;;;;;;;0.20;0.20;;;9.20;99.90;;;;;;4855221;29;20056;-80
2022/09/21 02:50:50;;;;;;;0.10;0.10;;;9.10;99.90;;;;;;4878046;29;20132;-81
2022/09/21 02:53:27;;;;;;;0.10;0.10;;;9.00;99.90;;;;;;4857948;29;20925;-81
2022/09/21 02:55:56;;;;;;;0.10;0.10;;;9.00;99.90;;;;;;4874409;29;20084;-80
2022/09/21 02:58:25;;;;;;;0.20;0.20;;;9.00;99.90;;;;;;4876552;29;20056;-81
2022/09/21 03:00:51;;;;;;;0.15;0.15;;;9.00;99.90;;;;;;4856991;29;20062;-81
2022/09/21 03:03:22;;;;;;;0.10;0.10;;;8.90;99.90;;;;;;4866645;29;20056;-80
2022/09/21 03:05:49;;;;;;;0.20;0.20;;;8.90;99.90;;;;;;4875788;29;20691;-80
2022/09/21 03:08:16;;;;;;;0.20;0.20;;;8.80;99.90;;;;;;4857828;29;20060;-80
2022/09/21 03:10:43;;;;;;;0.20;0.20;;;8.80;99.90;;;;;;4875909;29;20093;-80
2022/09/21 03:13:09;;;;;;;0.20;0.20;;;8.80;99.90;;;;;;4860102;29;20040;-80
2022/09/21 03:15:36;;;;;;;0.20;0.20;;;8.80;99.90;;;;;;4877019;29;20041;-80
2022/09/21 03:18:08;;;;;;;0.20;0.20;;;8.80;99.90;;;;;;4875584;29;20045;-80
2022/09/21 03:20:39;;;;;;;0.20;0.20;;;8.80;99.90;;;;;;4875895;29;20049;-80
2022/09/21 03:23:05;;;;;;;0.20;0.20;;;8.70;99.90;;;;;;4874514;29;20051;-81
2022/09/21 03:25:32;;;;;;;0.20;0.20;;;8.80;99.90;;;;;;4876617;29;20061;-80
2022/09/21 03:27:58;;;;;;;0.20;0.20;;;8.70;99.90;;;;;;4876768;29;20080;-80
2022/09/21 03:30:26;;;;;;;0.20;0.20;;;8.90;99.90;;;;;;4858658;29;20148;-80
2022/09/21 03:32:52;;;;;;;0.13;0.13;;;8.70;99.90;;;;;;4855850;29;20045;-80
2022/09/21 03:35:20;;;;;;;0.10;0.10;;;8.70;99.90;;;;;;4857566;29;20053;-80
2022/09/21 03:37:47;;;;;;;0.10;0.10;;;8.70;99.90;;;;;;4871474;29;20116;-82
2022/09/21 03:40:13;;;;;;;0.20;0.20;;;8.70;99.90;;;;;;4859628;29;20049;-80
2022/09/21 03:42:39;;;;;;;0.20;0.20;;;8.70;99.90;;;;;;4874522;29;20057;-81
2022/09/21 03:45:07;;;;;;;0.20;0.20;;;8.60;99.90;;;;;;4858840;29;20059;-80
2022/09/21 03:47:33;;;;;;;0.20;0.20;;;8.60;99.90;;;;;;4859526;29;20048;-80
2022/09/21 03:49:58;;;;;;;0.20;0.20;;;8.60;99.90;;;;;;4863090;29;20434;-80
2022/09/21 03:52:24;;;;;;;0.20;0.20;;;8.60;99.90;;;;;;4856012;29;20221;-80
2022/09/21 03:54:49;;;;;;;0.20;0.20;;;8.60;99.90;;;;;;4873069;29;20489;-80
2022/09/21 03:57:15;;;;;;;0.20;0.20;;;8.60;99.90;;;;;;4859029;29;20406;-80
2022/09/21 03:59:41;;;;;;;0.20;0.20;;;8.50;99.90;;;;;;4872796;29;20048;-80
2022/09/21 04:02:06;;;;;;;0.20;0.20;;;8.60;99.90;;;;;;4858068;29;20044;-80
2022/09/21 04:04:32;;;;;;;0.20;0.20;;;8.60;99.90;;;;;;4856736;29;20076;-81
2022/09/21 04:06:58;;;;;;;0.20;0.20;;;8.70;99.90;;;;;;4859305;29;20053;-80
2022/09/21 04:09:24;;;;;;;0.10;0.10;;;8.50;99.90;;;;;;4875433;29;20040;-80
2022/09/21 04:11:52;;;;;;;0.20;0.20;;;8.60;99.90;;;;;;4858597;29;20053;-81
2022/09/21 04:14:17;;;;;;;0.20;0.20;;;8.50;99.90;;;;;;4858880;29;20065;-80
2022/09/21 04:16:43;;;;;;;0.20;0.20;;;8.50;99.90;;;;;;4875798;29;20417;-80
2022/09/21 04:19:09;;;;;;;0.20;0.20;;;8.50;99.90;;;;;;4857615;29;20490;-80
2022/09/21 04:21:35;;;;;;;0.20;0.20;;;8.70;99.90;;;;;;4872425;29;20044;-79
2022/09/21 04:24:00;;;;;;;0.20;0.20;;;8.60;99.90;;;;;;4859233;29;20052;-79
2022/09/21 04:26:29;;;;;;;0.20;0.20;;;8.50;99.90;;;;;;4873452;29;20072;-82
2022/09/21 04:28:55;;;;;;;0.20;0.20;;;8.50;99.90;;;;;;4874568;29;20096;-82
2022/09/21 04:31:23;;;;;;;0.20;0.20;;;8.50;99.90;;;;;;4875691;29;20033;-82
2022/09/21 04:33:53;;;;;;;0.13;0.13;;;8.50;99.90;;;;;;4856536;29;20057;-82
2022/09/21 04:36:20;;;;;;;0.17;0.17;;;8.50;99.90;;;;;;4858046;29;20049;-82
2022/09/21 04:38:46;;;;;;;0.20;0.20;;;8.50;99.90;;;;;;4873192;29;20045;-82
2022/09/21 04:41:12;;;;;;;0.20;0.20;;;8.40;99.90;;;;;;4874266;29;20387;-81
2022/09/21 04:43:42;;;;;;;0.20;0.20;;;8.40;99.90;;;;;;4858969;29;20454;-82
2022/09/21 04:46:09;;;;;;;0.10;0.10;;;8.50;99.90;;;;;;4872925;29;20048;-80
2022/09/21 04:48:35;;;;;;;0.20;0.20;;;8.50;99.90;;;;;;4855248;29;20060;-80
2022/09/21 04:51:02;;;;;;;0.20;0.20;;;8.40;99.90;;;;;;4862175;29;20049;-79
2022/09/21 04:53:28;;;;;;;0.20;0.20;;;8.40;99.90;;;;;;4874816;29;20045;-80
2022/09/21 04:55:54;;;;;;;0.20;0.20;;;8.40;99.90;;;;;;4873835;29;20562;-80
2022/09/21 04:58:21;;;;;;;0.20;0.20;;;8.40;99.90;;;;;;4858058;29;20089;-80
2022/09/21 05:00:52;;;;;;;0.20;0.20;;;8.40;99.90;;;;;;4856296;29;20052;-80
2022/09/21 05:03:18;;;;;;;0.20;0.20;;;8.40;99.90;;;;;;4857243;29;20056;-80
2022/09/21 05:05:51;;;;;;;0.20;0.20;;;8.40;99.90;;;;;;4857574;29;20144;-81
2022/09/21 05:10:01;;;;;;;0.20;0.20;;;8.40;99.90;;;;;;4873394;29;20063;-81
2022/09/21 05:11:04;;;;;;;0.20;0.20;;;8.30;99.90;;;;;;4875187;29;20056;-81
2022/09/21 05:13:30;;;;;;;0.10;0.10;;;8.40;99.90;;;;;;4873107;29;20395;-81
2022/09/21 05:15:56;;;;;;;0.20;0.20;;;8.40;99.90;;;;;;4874175;29;20120;-80
2022/09/21 05:18:21;;;;;;;0.20;0.20;;;8.30;99.90;;;;;;4874001;29;20037;-81
2022/09/21 05:20:54;;;;;;;0.17;0.17;;;8.30;99.90;;;;;;4873950;29;20489;-80
2022/09/21 05:23:21;;;;;;;0.20;0.20;;;8.30;99.90;;;;;;4857153;29;20522;-80
2022/09/21 05:25:47;;;;;;;0.20;0.20;;;8.30;99.90;;;;;;4858507;29;20092;-81
2022/09/21 05:28:13;;;;;;;0.20;0.20;;;8.30;99.90;;;;;;4857731;29;20489;-80
2022/09/21 05:30:39;;;;;;;0.20;0.20;;;8.30;99.90;;;;;;4874358;29;20474;-80
2022/09/21 05:33:06;;;;;;;0.20;0.20;;;8.30;99.90;;;;;;4871535;29;20056;-81
2022/09/21 05:35:44;;;;;;;0.20;0.20;;;8.30;99.90;;;;;;4855564;29;20048;-80
2022/09/21 05:38:18;;;;;;;0.20;0.20;;;8.30;99.90;;;;;;4856765;29;20450;-80
2022/09/21 05:40:46;;;;;;;0.20;0.20;;;8.30;99.90;;;;;;4875026;29;20112;-80
2022/09/21 05:43:12;;;;;;;0.20;0.20;;;8.30;99.90;;;;;;4873048;29;20048;-80
2022/09/21 05:45:45;;;;;;;0.20;0.20;;;8.30;99.90;;;;;;4856050;29;20057;-81
2022/09/21 05:48:20;;;;;;;0.20;0.20;;;8.40;99.90;;;;;;4854234;29;20509;-81
2022/09/21 05:51:02;;;;;;;0.25;0.25;;;8.30;99.90;;;;;;4859964;29;20063;-80
2022/09/21 05:53:57;;;;;;;0.20;0.20;;;8.30;99.90;;;;;;4872656;29;20492;-81
2022/09/21 05:56:55;;;;;;;0.10;0.10;;;8.30;99.90;;;;;;4873941;29;20055;-81
2022/09/21 05:59:33;;;;;;;0.20;0.20;;;8.30;99.90;;;;;;4856022;29;20053;-80
2022/09/21 06:02:17;;;;;;;0.20;0.20;;;8.30;99.90;;;;;;4855998;29;20084;-81
2022/09/21 06:04:42;;;;;;;0.20;0.20;;;8.30;99.90;;;;;;4868573;29;20056;-81
2022/09/21 06:07:08;;;;;;;0.20;0.20;;;8.30;99.90;;;;;;4856133;29;20053;-81
2022/09/21 06:09:34;;;;;;;0.20;0.20;;;8.40;99.90;;;;;;4874289;29;20055;-81
2022/09/21 06:11:59;;;;;;;0.10;0.10;;;8.40;99.90;;;;;;4855474;29;20041;-81
2022/09/21 06:14:25;;;;;;;0.20;0.20;;;8.40;99.90;;;;;;4872303;29;20048;-81
2022/09/21 06:16:51;;;;;;;0.10;0.10;;;8.40;99.90;;;;;;4875106;29;20073;-81
2022/09/21 06:19:17;;;;;;;0.20;0.20;;;8.40;99.90;;;;;;4851970;29;20057;-81
2022/09/21 06:21:43;;;;;;;0.20;0.20;;;8.50;99.90;;;;;;4873998;29;20049;-80
2022/09/21 06:24:09;;;;;;;0.22;0.22;;;8.60;99.90;;;;;;4872271;29;20108;-81
2022/09/21 06:26:35;;;;;;;0.20;0.20;;;8.50;99.90;;;;;;4872196;29;20049;-81
2022/09/21 06:29:00;;;;;;;0.17;0.17;;;8.60;99.90;;;;;;4873556;29;20207;-81
2022/09/21 06:31:27;;;;;;;0.20;0.20;;;8.70;99.90;;;;;;4857068;29;20401;-81
2022/09/21 06:33:52;;;;;;;0.20;0.20;;;8.70;99.90;;;;;;4870132;29;20120;-80
2022/09/21 06:36:18;;;;;;;0.20;0.20;;;8.70;99.90;;;;;;4856974;29;20152;-80
2022/09/21 06:38:43;;;;;;;0.20;0.20;;;8.70;99.90;;;;;;4874449;29;20045;-79
2022/09/21 06:41:09;;;;;;;0.20;0.20;;;8.80;99.90;;;;;;4870465;29;20055;-79
2022/09/21 06:43:35;;;;;;;0.20;0.20;;;8.90;99.90;;;;;;4856576;29;20053;-83
2022/09/21 06:46:02;;;;;;;0.10;0.10;;;8.90;99.90;;;;;;4874094;29;20048;-79
2022/09/21 06:48:29;;;;;;;0.20;0.20;;;9.20;99.90;;;;;;4855756;29;20056;-80
2022/09/21 06:50:59;;;;;;;0.20;0.20;;;9.00;99.90;;;;;;4859169;29;20135;-79
2022/09/21 06:53:25;;;;;;;0.20;0.20;;;9.10;99.90;;;;;;4863351;29;20055;-80
2022/09/21 06:55:51;;;;;;;0.20;0.20;;;9.10;99.90;;;;;;4875507;29;20442;-82
2022/09/21 06:58:18;;;;;;;0.20;0.20;;;9.10;99.90;;;;;;4867287;29;20142;-80
2022/09/21 07:00:44;;;;;;;0.17;0.17;;;9.20;99.90;;;;;;4875092;29;20084;-81
2022/09/21 07:03:12;;;;;;;0.20;0.20;;;9.30;99.90;;;;;;4855897;29;20045;-80
2022/09/21 07:05:38;;;;;;;0.20;0.20;;;9.30;99.90;;;;;;4858690;29;20061;-80
2022/09/21 07:08:04;;;;;;;0.20;0.20;;;9.40;99.90;;;;;;4857024;29;20053;-80
2022/09/21 07:10:30;;;;;;;0.20;0.20;;;9.40;99.90;;;;;;4875666;29;20053;-80
2022/09/21 07:13:02;;;;;;;0.10;0.10;;;9.50;99.90;;;;;;4876632;29;20041;-81
2022/09/21 07:15:28;;;;;;;0.20;0.20;;;9.50;99.90;;;;;;4878164;29;20052;-80
2022/09/21 07:17:54;;;;;;;0.20;0.20;;;9.60;99.90;;;;;;4876759;29;20057;-79
2022/09/21 07:20:20;;;;;;;0.20;0.20;;;9.70;99.90;;;;;;4876264;29;20560;-80
2022/09/21 07:22:46;;;;;;;0.20;0.20;;;9.80;99.90;;;;;;4877707;29;20473;-81
2022/09/21 07:25:12;;;;;;;0.20;0.20;;;9.80;99.90;;;;;;4894035;29;20044;-80
2022/09/21 07:27:37;;;;;;;0.20;0.20;;;10.00;99.90;;;;;;4885398;29;20136;-81
2022/09/21 07:30:05;;;;;;;0.20;0.20;;;10.00;99.90;;;;;;4875824;29;20131;-81
2022/09/21 07:32:31;;;;;;;0.20;0.20;;;10.10;99.90;;;;;;4874574;29;20041;-80
2022/09/21 07:34:56;;;;;;;0.20;0.20;;;10.20;99.90;;;;;;4880040;29;20045;-81
2022/09/21 07:37:23;;;;;;;0.20;0.20;;;10.30;99.90;;;;;;4877837;29;20474;-81
2022/09/21 07:39:50;;;;;;;0.20;0.20;;;10.40;99.90;;;;;;4859398;29;20523;-81
2022/09/21 07:42:17;;;;;;;0.10;0.10;;;10.40;99.90;;;;;;4882630;29;20037;-81
2022/09/21 07:44:43;;;;;;;0.10;0.10;;;10.50;99.90;;;;;;4859865;29;20504;-81
2022/09/21 07:47:09;;;;;;;0.13;0.13;;;10.60;99.90;;;;;;4864607;29;20040;-80
2022/09/21 07:49:35;;;;;;;0.17;0.17;;;10.70;99.90;;;;;;4876925;29;20060;-81
2022/09/21 07:52:01;;;;;;;0.20;0.20;;;10.80;99.90;;;;;;4875990;29;20037;-81
2022/09/21 07:54:26;;;;;;;0.20;0.20;;;10.90;99.90;;;;;;4875146;29;20402;-81
2022/09/21 07:59:36;;;;;;;0.15;0.15;;;11.00;99.90;;;;;;4865450;29;20405;-81
2022/09/21 08:02:02;;;;;;;0.13;0.13;;;11.10;99.90;;;;;;4872423;29;20051;-81
2022/09/21 08:04:27;;;;;;;0.20;0.20;;;11.20;99.90;;;;;;4867678;29;20109;-81
2022/09/21 08:06:53;;;;;;;0.10;0.10;;;11.30;99.90;;;;;;4869885;29;20568;-81
2022/09/21 08:09:19;;;;;;;0.20;0.20;;;11.30;99.90;;;;;;4855145;29;20434;-80
2022/09/21 08:11:45;;;;;;;0.10;0.10;;;11.40;99.90;;;;;;4857816;29;20052;-79
2022/09/21 08:14:18;;;;;;;0.20;0.20;;;11.50;99.90;;;;;;4859509;29;20097;-80
2022/09/21 08:16:45;;;;;;;0.10;0.10;;;11.60;99.90;;;;;;4875857;29;20044;-81
2022/09/21 08:19:11;;;;;;;0.10;0.10;;;11.60;99.90;;;;;;4856637;29;20041;-80
2022/09/21 08:21:37;;;;;;;0.10;0.10;;;11.70;99.90;;;;;;4876332;29;20127;-79
2022/09/21 08:24:03;;;;;;;0.17;0.17;;;11.80;99.90;;;;;;4872367;29;20136;-80
2022/09/21 08:26:28;;;;;;;0.20;0.20;;;11.90;99.90;;;;;;4853770;29;20037;-80
2022/09/21 08:28:57;;;;;;;0.20;0.20;;;11.90;99.90;;;;;;4858712;29;20119;-80
2022/09/21 08:31:25;;;;;;;0.10;0.10;;;12.00;99.90;;;;;;4859352;29;20149;-80
2022/09/21 08:33:51;;;;;;;0.20;0.20;;;12.10;99.90;;;;;;4851717;29;20053;-80
2022/09/21 08:36:18;;;;;;;0.20;0.20;;;12.10;99.90;;;;;;4851856;29;20313;-80
2022/09/21 08:38:45;;;;;;;0.20;0.20;;;12.20;99.90;;;;;;4856198;29;20520;-81
2022/09/21 08:41:21;;;;;;;0.20;0.20;;;12.30;99.90;;;;;;4861692;29;20042;-80
2022/09/21 08:44:03;;;;;;;0.20;0.20;;;12.30;99.90;;;;;;4867236;29;20068;-80
2022/09/21 08:46:30;;;;;;;;;;;12.40;99.90;;;;;;4866468;29;20060;-80
2022/09/21 08:48:58;;;;;;;0.10;0.10;;;12.50;99.90;;;;;;4856301;29;20346;-80
2022/09/21 08:51:28;;;;;;;0.10;0.10;;;12.60;99.90;;;;;;4855424;29;20056;-81
2022/09/21 08:53:59;;;;;;;0.20;0.20;;;12.70;99.90;;;;;;4854951;29;20045;-80
2022/09/21 08:56:26;;;;;;;0.20;0.20;;;12.80;99.90;;;;;;4855662;29;20120;-80
2022/09/21 08:58:52;;;;;;;0.20;0.20;;;12.80;99.90;;;;;;4857094;29;20109;-79
2022/09/21 09:01:34;;;;;;;0.20;0.20;;;12.90;99.90;;;;;;4857774;29;20378;-82
2022/09/21 09:04:28;;;;;;;0.20;0.20;;;12.90;99.90;;;;;;4853141;29;20050;-81
2022/09/21 09:06:57;;;;;;;0.10;0.10;;;13.00;99.90;;;;;;4856156;29;20050;-81
2022/09/21 09:09:36;;;;;;;0.20;0.20;;;13.00;99.90;;;;;;4857637;29;20164;-81
2022/09/21 09:12:23;;;;;;;0.10;0.10;;;13.10;99.90;;;;;;4856500;29;20443;-78
2022/09/21 09:15:07;;;;;;;0.10;0.10;;;13.10;99.90;;;;;;4854056;29;20482;-78
2022/09/21 09:17:41;;;;;;;0.20;0.20;;;13.20;99.90;;;;;;4856306;29;20449;-77
2022/09/21 09:20:26;;;;;;;0.10;0.10;;;13.20;99.90;;;;;;4853159;29;20049;-78
2022/09/21 09:23:08;;;;;;;0.10;0.10;;;13.30;99.90;;;;;;4857227;29;20502;-78
2022/09/21 09:25:40;;;;;;;0.20;0.20;;;13.40;99.90;;;;;;4856886;29;20398;-79
2022/09/21 09:28:22;;;;;;;0.15;0.15;;;13.40;99.90;;;;;;4876274;29;20045;-78
2022/09/21 09:30:56;;;;;;;0.10;0.10;;;13.60;99.90;;;;;;4875600;29;20414;-79
2022/09/21 09:33:27;;;;;;;0.20;0.20;;;13.60;99.90;;;;;;4882411;29;20044;-77
2022/09/21 09:36:05;;;;;;;0.20;0.20;;;13.60;99.90;;;;;;4864455;29;20405;-79
2022/09/21 09:38:36;;;;;;;0.20;0.20;;;13.60;99.90;;;;;;4888682;29;20131;-79
2022/09/21 09:41:05;;;;;;;;;;;13.70;99.90;;;;;;4855463;29;20045;-78
2022/09/21 09:43:39;;;;;;;0.20;0.20;;;13.80;99.90;;;;;;4865109;29;19931;-77
2022/09/21 09:46:28;;;;;;;0.20;0.20;;;13.80;99.90;;;;;;4876293;29;20063;-77
2022/09/21 09:49:23;;;;;;;0.20;0.20;;;13.90;99.90;;;;;;4856886;29;20127;-77
2022/09/21 09:51:49;;;;;;;0.10;0.10;;;14.00;99.90;;;;;;4887770;29;20680;-78
2022/09/21 09:54:17;;;;;;;0.20;0.20;;;14.00;99.90;;;;;;4849951;29;20112;-77
2022/09/21 09:56:43;;;;;;;0.20;0.20;;;14.10;99.90;;;;;;4852983;29;20057;-79
2022/09/21 09:59:23;;;;;;;0.20;0.20;;;14.10;99.90;;;;;;4869417;29;20108;-78
2022/09/21 10:02:01;;;;;;;0.20;0.20;;;14.20;99.90;;;;;;4882336;29;20069;-78
2022/09/21 10:04:26;;;;;;;0.10;0.10;;;14.30;99.90;;;;;;4860267;29;20057;-79
2022/09/21 10:06:52;;;;;;;0.20;0.20;;;14.40;99.90;;;;;;4878906;29;20275;-78
2022/09/21 10:09:30;;;;;;;0.20;0.20;;;14.40;99.90;;;;;;4866113;29;20189;-78
2022/09/21 10:12:17;;;;;;;0.20;0.20;;;14.50;99.90;;;;;;4876997;29;20097;-78
2022/09/21 10:14:50;;;;;;;0.10;0.10;;;14.70;99.90;;;;;;4883098;29;20056;-78
2022/09/21 10:17:17;;;;;;;0.10;0.10;;;14.70;99.90;;;;;;4879848;29;20053;-78
2022/09/21 10:19:43;;;;;;;0.10;0.10;;;14.80;99.90;;;;;;4874295;29;20048;-75
2022/09/21 10:22:16;;;;;;;0.20;0.20;;;14.90;99.90;;;;;;4888576;29;20045;-76
2022/09/21 10:24:49;;;;;;;0.10;0.10;;;15.00;99.90;;;;;;4859193;29;20053;-76
2022/09/21 10:27:21;;;;;;;0.15;0.15;;;15.10;99.90;;;;;;4883187;29;20052;-76
2022/09/21 10:29:48;;;;;;;0.10;0.10;;;15.20;99.90;;;;;;4860391;29;20063;-76
2022/09/21 10:32:18;;;;;;;0.20;0.20;;;15.20;99.90;;;;;;4857211;29;20714;-76
2022/09/21 10:35:02;;;;;;;0.20;0.20;;;15.30;99.90;;;;;;4875527;29;20045;-77
2022/09/21 10:37:33;;;;;;;0.13;0.13;;;15.40;99.90;;;;;;4875249;29;20068;-76
2022/09/21 10:39:59;;;;;;;;;;;15.50;99.90;;;;;;4874759;29;20041;-76
2022/09/21 10:42:25;;;;;;;0.20;0.20;;;15.50;99.90;;;;;;4876600;29;19930;-76
2022/09/21 10:45:16;;;;;;;0.20;0.20;;;15.60;99.90;;;;;;4857676;29;20055;-76
2022/09/21 10:47:45;;;;;;;0.20;0.20;;;15.60;99.90;;;;;;4858809;29;20055;-76
2022/09/21 10:50:43;;;;;;;0.20;0.20;;;15.60;99.90;;;;;;4865078;29;20049;-76
2022/09/21 10:53:11;;;;;;;0.20;0.20;;;15.50;99.90;;;;;;4843757;29;20054;-76
2022/09/21 10:55:53;;;;;;;0.20;0.20;;;15.50;99.90;;;;;;4864717;29;20507;-76
2022/09/21 10:58:19;;;;;;;0.20;0.20;;;15.40;99.90;;;;;;4860563;29;20045;-78
2022/09/21 11:00:48;;;;;;;0.20;0.20;;;15.40;99.90;;;;;;4875316;29;20036;-77
2022/09/21 11:03:29;;;;;;;0.20;0.20;;;15.40;99.90;;;;;;4876042;29;20045;-77
2022/09/21 11:05:58;;;;;;;0.20;0.20;;;15.50;99.90;;;;;;4859334;29;20060;-81
2022/09/21 11:08:41;;;;;;;0.17;0.17;;;15.60;99.90;;;;;;4858998;29;20052;-79
2022/09/21 11:11:22;;;;;;;0.10;0.10;;;15.60;99.90;;;;;;4860539;29;20135;-76
2022/09/21 11:13:59;;;;;;;0.20;0.20;;;15.60;99.90;;;;;;4856250;29;20049;-75
2022/09/21 11:16:39;;;;;;;0.20;0.20;;;15.60;99.90;;;;;;4873152;29;20055;-76
2022/09/21 11:19:13;;;;;;;0.20;0.20;;;15.60;99.90;;;;;;4856130;29;20075;-76
2022/09/21 11:21:47;;;;;;;0.20;0.20;;;15.70;99.90;;;;;;4854339;29;20073;-77
2022/09/21 11:24:43;;;;;;;0.20;0.20;;;15.60;99.90;;;;;;4857972;29;20076;-76
2022/09/21 11:27:17;;;;;;;0.20;0.20;;;15.60;99.90;;;;;;4872885;29;20064;-76
2022/09/21 11:30:06;;;;;;;0.20;0.20;;;15.50;99.90;;;;;;4856345;29;20045;-80
2022/09/21 11:32:53;;;;;;;0.13;0.13;;;15.60;99.90;;;;;;4875493;29;20080;-76
2022/09/21 11:35:50;;;;;;;0.10;0.10;;;15.60;99.90;;;;;;4859149;29;20512;-76
2022/09/21 11:38:45;;;;;;;0.10;0.10;;;15.70;99.90;;;;;;4857650;29;20136;-76
2022/09/21 11:41:39;;;;;;;0.20;0.20;;;15.70;99.90;;;;;;4864567;29;20060;-76
2022/09/21 11:44:28;;;;;;;0.20;0.20;;;15.90;99.90;;;;;;4857535;29;20056;-77
2022/09/21 11:47:31;;;;;;;0.20;0.20;;;16.10;99.90;;;;;;4859106;29;20049;-77
2022/09/21 11:50:18;;;;;;;0.20;0.20;;;16.40;99.90;;;;;;4858273;29;20076;-79
2022/09/21 11:53:03;;;;;;;0.20;0.20;;;16.70;99.90;;;;;;4874328;29;20049;-77
2022/09/21 11:55:45;;;;;;;0.20;0.20;;;17.00;99.90;;;;;;4860251;29;20132;-78
2022/09/21 11:58:26;;;;;;;0.20;0.20;;;17.30;99.90;;;;;;4873064;29;20040;-78
2022/09/21 12:01:05;;;;;;;0.20;0.20;;;17.60;99.90;;;;;;4860541;29;20061;-78
2022/09/21 12:04:02;;;;;;;0.20;0.20;;;17.90;99.90;;;;;;4858914;29;20488;-78
2022/09/21 12:06:51;;;;;;;0.20;0.20;;;18.10;99.90;;;;;;4861811;29;20068;-78
2022/09/21 12:09:43;;;;;;;0.10;0.10;;;18.30;99.90;;;;;;4819542;29;20068;-78
2022/09/21 12:12:34;;;;;;;0.20;0.20;;;18.40;99.90;;;;;;4860076;29;20049;-77
2022/09/21 12:15:03;;;;;;;0.20;0.20;;;18.50;99.90;;;;;;4860446;29;20036;-77
2022/09/21 12:17:55;;;;;;;0.20;0.20;;;18.60;99.90;;;;;;4861131;29;20051;-78
2022/09/21 12:20:58;;;;;;;0.20;0.20;;;18.80;99.90;;;;;;4878566;29;20120;-78
2022/09/21 12:23:44;;;;;;;0.20;0.20;;;19.10;99.90;;;;;;4880377;29;20404;-78
2022/09/21 12:26:16;;;;;;;0.20;0.20;;;19.40;99.90;;;;;;4877971;29;20049;-78
2022/09/21 12:28:46;;;;;;;0.20;0.20;;;19.60;99.90;;;;;;4861290;29;20052;-78
2022/09/21 12:31:30;;;;;;;0.20;0.20;;;19.80;99.90;;;;;;4878837;29;20045;-78
2022/09/21 12:34:24;;;;;;;0.20;0.20;;;20.00;99.90;;;;;;4861887;29;20272;-78
2022/09/21 12:37:30;;;;;;;0.20;0.20;;;20.50;99.90;;;;;;4861929;29;20052;-78
2022/09/21 12:40:32;;;;;;;0.20;0.20;;;20.80;99.90;;;;;;4864592;29;20429;-78
2022/09/21 12:43:14;;;;;;;0.20;0.20;;;21.00;99.90;;;;;;4857445;29;20056;-78
2022/09/21 12:45:52;;;;;;;0.20;0.20;;;21.10;99.90;;;;;;4860509;29;20064;-78
2022/09/21 12:48:44;;;;;;;0.20;0.20;;;21.30;99.90;;;;;;4876853;29;20203;-78
2022/09/21 12:51:13;;;;;;;0.20;0.20;;;21.30;99.90;;;;;;4860969;29;20057;-78
2022/09/21 12:53:44;;;;;;;0.20;0.20;;;21.40;99.90;;;;;;4859552;29;20052;-79
2022/09/21 12:56:20;;;;;;;;;;;21.30;97.80;;;;;;4877829;29;20060;-79
2022/09/21 12:58:59;;;;;;;0.20;0.20;;;21.10;96.60;;;;;;4876804;29;19930;-78
2022/09/21 13:01:46;;;;;;;0.20;0.20;;;20.70;95.50;;;;;;4876679;29;20041;-78
2022/09/21 13:04:12;;;;;;;0.20;0.20;;;20.40;97.50;;;;;;4859239;29;20124;-78
2022/09/21 13:07:09;;;;;;;0.20;0.20;;;20.50;97.90;;;;;;4860596;29;20048;-77
2022/09/21 13:09:40;;;;;;;0.20;0.20;;;20.60;98.40;;;;;;4860144;29;20045;-77
2022/09/21 13:12:14;;;;;;;0.20;0.20;;;20.80;98.50;;;;;;4877479;29;20229;-77
2022/09/21 13:14:50;;;;;;;0.20;0.20;;;20.90;97.50;;;;;;4859440;29;20079;-77
2022/09/21 13:17:22;;;;;;;0.20;0.20;;;20.90;97.80;;;;;;4877436;29;20052;-78
2022/09/21 13:20:00;;;;;;;0.20;0.20;;;;;;;;;;4875963;29;20363;-78
2022/09/21 13:22:29;;;;;;;0.20;0.20;;;;;;;;;;4859705;29;20109;-78
2022/09/21 13:25:00;;;;;;;0.20;0.20;;;;;;;;;;4860071;29;20497;-78
2022/09/21 13:27:46;;;;;;;0.20;0.20;;;;;;;;;;4876707;29;20064;-77